sensor_id;sensor_type;location;lat;lon;timestamp;temperature;humidity
2409;DHT22;8463;48.094;7.970;2022-09-23T00:01:30;10.50;30.40
2409;DHT22;8463;48.094;7.970;2022-09-23T00:03:58;10.60;31.10
2409;DHT22;8463;48.094;7.970;2022-09-23T00:06:24;10.60;30.50
2409;DHT22;8463;48.094;7.970;2022-09-23T00:08:51;10.60;29.70
2409;DHT22;8463;48.094;7.970;2022-09-23T00:11:21;10.60;30.10
2409;DHT22;8463;48.094;7.970;2022-09-23T00:13:49;10.60;29.90
2409;DHT22;8463;48.094;7.970;2022-09-23T00:16:18;10.60;30.40
2409;DHT22;8463;48.094;7.970;2022-09-23T00:18:44;10.50;30.70
2409;DHT22;8463;48.094;7.970;2022-09-23T00:21:12;10.50;31.10
2409;DHT22;8463;48.094;7.970;2022-09-23T00:23:38;10.50;30.10
2409;DHT22;8463;48.094;7.970;2022-09-23T00:26:07;10.50;30.70
2409;DHT22;8463;48.094;7.970;2022-09-23T00:28:33;10.50;30.70
2409;DHT22;8463;48.094;7.970;2022-09-23T00:31:07;10.50;29.90
2409;DHT22;8463;48.094;7.970;2022-09-23T00:33:33;10.40;30.30
2409;DHT22;8463;48.094;7.970;2022-09-23T00:36:04;10.30;30.30
2409;DHT22;8463;48.094;7.970;2022-09-23T00:38:30;10.30;30.80
2409;DHT22;8463;48.094;7.970;2022-09-23T00:40:56;10.30;30.70
2409;DHT22;8463;48.094;7.970;2022-09-23T00:46:02;10.10;31.70
2409;DHT22;8463;48.094;7.970;2022-09-23T00:48:27;10.10;31.10
2409;DHT22;8463;48.094;7.970;2022-09-23T00:50:53;10.00;32.10
2409;DHT22;8463;48.094;7.970;2022-09-23T00:53:21;10.00;32.90
2409;DHT22;8463;48.094;7.970;2022-09-23T00:55:50;10.10;31.40
2409;DHT22;8463;48.094;7.970;2022-09-23T00:58:20;10.10;32.10
2409;DHT22;8463;48.094;7.970;2022-09-23T01:00:46;10.10;31.50
2409;DHT22;8463;48.094;7.970;2022-09-23T01:03:13;10.10;32.00
2409;DHT22;8463;48.094;7.970;2022-09-23T01:05:39;10.10;31.80
2409;DHT22;8463;48.094;7.970;2022-09-23T01:08:06;10.10;32.50
2409;DHT22;8463;48.094;7.970;2022-09-23T01:13:26;10.00;30.90
2409;DHT22;8463;48.094;7.970;2022-09-23T01:18:56;10.00;31.80
2409;DHT22;8463;48.094;7.970;2022-09-23T01:32:48;9.80;34.50
2409;DHT22;8463;48.094;7.970;2022-09-23T01:35:28;9.80;34.50
2409;DHT22;8463;48.094;7.970;2022-09-23T01:38:28;9.80;34.50
2409;DHT22;8463;48.094;7.970;2022-09-23T01:41:09;9.80;34.50
2409;DHT22;8463;48.094;7.970;2022-09-23T01:49:16;9.70;33.90
2409;DHT22;8463;48.094;7.970;2022-09-23T01:52:19;9.70;34.40
2409;DHT22;8463;48.094;7.970;2022-09-23T01:54:56;9.70;34.40
2409;DHT22;8463;48.094;7.970;2022-09-23T01:57:32;9.70;34.10
2409;DHT22;8463;48.094;7.970;2022-09-23T02:00:16;9.70;34.40
2409;DHT22;8463;48.094;7.970;2022-09-23T02:02:55;9.60;34.30
2409;DHT22;8463;48.094;7.970;2022-09-23T02:05:28;9.60;34.30
2409;DHT22;8463;48.094;7.970;2022-09-23T02:08:02;9.50;34.20
2409;DHT22;8463;48.094;7.970;2022-09-23T02:10:35;9.50;34.30
2409;DHT22;8463;48.094;7.970;2022-09-23T02:13:22;9.40;35.00
2409;DHT22;8463;48.094;7.970;2022-09-23T02:15:51;9.40;34.50
2409;DHT22;8463;48.094;7.970;2022-09-23T02:18:27;9.40;34.30
2409;DHT22;8463;48.094;7.970;2022-09-23T02:21:01;9.40;34.60
2409;DHT22;8463;48.094;7.970;2022-09-23T02:24:32;9.40;35.20
2409;DHT22;8463;48.094;7.970;2022-09-23T02:30:10;9.30;35.80
2409;DHT22;8463;48.094;7.970;2022-09-23T02:32:51;9.30;36.50
2409;DHT22;8463;48.094;7.970;2022-09-23T02:35:26;9.30;36.80
2409;DHT22;8463;48.094;7.970;2022-09-23T02:41:15;9.50;35.20
2409;DHT22;8463;48.094;7.970;2022-09-23T02:46:26;9.50;34.80
2409;DHT22;8463;48.094;7.970;2022-09-23T02:48:57;9.60;34.50
2409;DHT22;8463;48.094;7.970;2022-09-23T02:51:26;9.60;34.30
2409;DHT22;8463;48.094;7.970;2022-09-23T02:53:54;9.60;34.30
2409;DHT22;8463;48.094;7.970;2022-09-23T02:56:21;9.60;34.30
2409;DHT22;8463;48.094;7.970;2022-09-23T02:58:48;9.60;34.30
2409;DHT22;8463;48.094;7.970;2022-09-23T03:06:32;9.50;34.20
2409;DHT22;8463;48.094;7.970;2022-09-23T03:09:25;9.50;34.20
2409;DHT22;8463;48.094;7.970;2022-09-23T03:12:19;9.40;34.10
2409;DHT22;8463;48.094;7.970;2022-09-23T03:14:57;9.30;34.90
2409;DHT22;8463;48.094;7.970;2022-09-23T03:20:40;9.40;35.20
2409;DHT22;8463;48.094;7.970;2022-09-23T03:23:06;9.60;33.80
2409;DHT22;8463;48.094;7.970;2022-09-23T03:25:38;9.60;35.00
2409;DHT22;8463;48.094;7.970;2022-09-23T03:28:07;9.60;34.30
2409;DHT22;8463;48.094;7.970;2022-09-23T03:30:34;9.60;33.40
2409;DHT22;8463;48.094;7.970;2022-09-23T03:33:02;9.60;33.10
2409;DHT22;8463;48.094;7.970;2022-09-23T03:35:31;9.60;32.00
2409;DHT22;8463;48.094;7.970;2022-09-23T03:38:22;9.50;32.80
2409;DHT22;8463;48.094;7.970;2022-09-23T03:40:49;9.40;34.10
2409;DHT22;8463;48.094;7.970;2022-09-23T03:43:17;9.30;34.10
2409;DHT22;8463;48.094;7.970;2022-09-23T03:45:45;9.30;33.80
2409;DHT22;8463;48.094;7.970;2022-09-23T03:48:11;9.30;34.30
2409;DHT22;8463;48.094;7.970;2022-09-23T03:50:39;9.30;34.30
2409;DHT22;8463;48.094;7.970;2022-09-23T03:53:05;9.30;34.10
2409;DHT22;8463;48.094;7.970;2022-09-23T03:55:31;9.30;34.10
2409;DHT22;8463;48.094;7.970;2022-09-23T03:57:56;9.30;34.00
2409;DHT22;8463;48.094;7.970;2022-09-23T04:00:24;9.30;34.00
2409;DHT22;8463;48.094;7.970;2022-09-23T04:02:50;9.30;34.00
2409;DHT22;8463;48.094;7.970;2022-09-23T04:05:16;9.30;34.00
2409;DHT22;8463;48.094;7.970;2022-09-23T04:07:42;9.20;34.30
2409;DHT22;8463;48.094;7.970;2022-09-23T04:10:08;9.20;34.10
2409;DHT22;8463;48.094;7.970;2022-09-23T04:12:35;9.30;34.00
2409;DHT22;8463;48.094;7.970;2022-09-23T04:15:00;9.20;33.90
2409;DHT22;8463;48.094;7.970;2022-09-23T04:17:26;9.30;34.10
2409;DHT22;8463;48.094;7.970;2022-09-23T04:19:52;9.40;34.10
2409;DHT22;8463;48.094;7.970;2022-09-23T04:22:17;9.40;34.10
2409;DHT22;8463;48.094;7.970;2022-09-23T04:24:43;9.40;34.50
2409;DHT22;8463;48.094;7.970;2022-09-23T04:27:09;9.50;34.30
2409;DHT22;8463;48.094;7.970;2022-09-23T04:29:34;9.50;34.20
2409;DHT22;8463;48.094;7.970;2022-09-23T04:32:00;9.50;34.30
2409;DHT22;8463;48.094;7.970;2022-09-23T04:34:25;9.60;34.30
2409;DHT22;8463;48.094;7.970;2022-09-23T04:36:51;9.50;34.20
2409;DHT22;8463;48.094;7.970;2022-09-23T04:39:17;9.60;34.30
2409;DHT22;8463;48.094;7.970;2022-09-23T04:41:43;9.60;34.30
2409;DHT22;8463;48.094;7.970;2022-09-23T04:44:11;9.50;34.30
2409;DHT22;8463;48.094;7.970;2022-09-23T04:46:37;9.60;33.80
2409;DHT22;8463;48.094;7.970;2022-09-23T04:49:05;9.60;34.30
2409;DHT22;8463;48.094;7.970;2022-09-23T04:51:30;9.60;34.30
2409;DHT22;8463;48.094;7.970;2022-09-23T04:53:56;9.50;34.20
2409;DHT22;8463;48.094;7.970;2022-09-23T04:56:26;9.50;34.20
2409;DHT22;8463;48.094;7.970;2022-09-23T04:58:52;9.50;34.30
2409;DHT22;8463;48.094;7.970;2022-09-23T05:01:21;9.50;35.10
2409;DHT22;8463;48.094;7.970;2022-09-23T05:04:01;9.50;35.30
2409;DHT22;8463;48.094;7.970;2022-09-23T05:06:33;9.50;35.20
2409;DHT22;8463;48.094;7.970;2022-09-23T05:08:59;9.50;35.20
2409;DHT22;8463;48.094;7.970;2022-09-23T05:11:27;9.60;35.30
2409;DHT22;8463;48.094;7.970;2022-09-23T05:13:53;9.60;34.30
2409;DHT22;8463;48.094;7.970;2022-09-23T05:16:20;9.50;34.20
2409;DHT22;8463;48.094;7.970;2022-09-23T05:18:50;9.50;34.60
2409;DHT22;8463;48.094;7.970;2022-09-23T05:21:20;9.50;34.70
2409;DHT22;8463;48.094;7.970;2022-09-23T05:23:53;9.50;34.50
2409;DHT22;8463;48.094;7.970;2022-09-23T05:26:20;9.50;35.00
2409;DHT22;8463;48.094;7.970;2022-09-23T05:28:46;9.50;34.70
2409;DHT22;8463;48.094;7.970;2022-09-23T05:31:15;9.50;35.20
2409;DHT22;8463;48.094;7.970;2022-09-23T05:33:46;9.50;35.50
2409;DHT22;8463;48.094;7.970;2022-09-23T05:36:14;9.50;34.80
2409;DHT22;8463;48.094;7.970;2022-09-23T05:38:42;9.60;33.80
2409;DHT22;8463;48.094;7.970;2022-09-23T05:41:10;9.60;34.30
2409;DHT22;8463;48.094;7.970;2022-09-23T05:43:36;9.50;34.90
2409;DHT22;8463;48.094;7.970;2022-09-23T05:46:15;9.60;33.80
2409;DHT22;8463;48.094;7.970;2022-09-23T05:48:42;9.60;35.10
2409;DHT22;8463;48.094;7.970;2022-09-23T05:51:16;9.60;33.90
2409;DHT22;8463;48.094;7.970;2022-09-23T05:53:43;9.70;34.40
2409;DHT22;8463;48.094;7.970;2022-09-23T05:56:16;9.80;34.90
2409;DHT22;8463;48.094;7.970;2022-09-23T05:58:43;9.80;34.50
2409;DHT22;8463;48.094;7.970;2022-09-23T06:01:14;9.80;34.50
2409;DHT22;8463;48.094;7.970;2022-09-23T06:03:44;9.80;33.90
2409;DHT22;8463;48.094;7.970;2022-09-23T06:06:12;9.80;34.50
2409;DHT22;8463;48.094;7.970;2022-09-23T06:08:45;9.80;34.50
2409;DHT22;8463;48.094;7.970;2022-09-23T06:11:12;9.90;34.60
2409;DHT22;8463;48.094;7.970;2022-09-23T06:13:38;9.90;34.60
2409;DHT22;8463;48.094;7.970;2022-09-23T06:16:09;9.90;34.60
2409;DHT22;8463;48.094;7.970;2022-09-23T06:18:40;9.90;35.10
2409;DHT22;8463;48.094;7.970;2022-09-23T06:21:07;10.10;44.10
2409;DHT22;8463;48.094;7.970;2022-09-23T06:23:32;10.60;52.80
2409;DHT22;8463;48.094;7.970;2022-09-23T06:26:02;11.00;41.70
2409;DHT22;8463;48.094;7.970;2022-09-23T06:28:29;11.00;40.90
2409;DHT22;8463;48.094;7.970;2022-09-23T06:31:07;10.90;34.50
2409;DHT22;8463;48.094;7.970;2022-09-23T06:33:33;10.80;34.20
2409;DHT22;8463;48.094;7.970;2022-09-23T06:36:00;10.60;32.80
2409;DHT22;8463;48.094;7.970;2022-09-23T06:38:27;10.50;33.60
2409;DHT22;8463;48.094;7.970;2022-09-23T06:40:54;10.50;34.10
2409;DHT22;8463;48.094;7.970;2022-09-23T06:43:21;10.50;34.40
2409;DHT22;8463;48.094;7.970;2022-09-23T06:45:51;10.60;33.90
2409;DHT22;8463;48.094;7.970;2022-09-23T06:48:17;10.60;34.70
2409;DHT22;8463;48.094;7.970;2022-09-23T06:50:43;10.50;35.20
2409;DHT22;8463;48.094;7.970;2022-09-23T06:53:09;10.50;35.00
2409;DHT22;8463;48.094;7.970;2022-09-23T06:55:34;10.60;34.90
2409;DHT22;8463;48.094;7.970;2022-09-23T06:58:00;10.60;34.90
2409;DHT22;8463;48.094;7.970;2022-09-23T07:00:26;10.70;34.30
2409;DHT22;8463;48.094;7.970;2022-09-23T07:02:51;10.80;34.80
2409;DHT22;8463;48.094;7.970;2022-09-23T07:05:19;10.90;35.30
2409;DHT22;8463;48.094;7.970;2022-09-23T07:07:46;11.00;35.00
2409;DHT22;8463;48.094;7.970;2022-09-23T07:10:12;11.10;34.10
2409;DHT22;8463;48.094;7.970;2022-09-23T07:12:38;11.10;34.70
2409;DHT22;8463;48.094;7.970;2022-09-23T07:15:04;11.30;34.40
2409;DHT22;8463;48.094;7.970;2022-09-23T07:19:56;11.30;33.40
2409;DHT22;8463;48.094;7.970;2022-09-23T07:22:23;11.50;34.00
2409;DHT22;8463;48.094;7.970;2022-09-23T07:24:52;11.50;32.80
2409;DHT22;8463;48.094;7.970;2022-09-23T07:27:22;11.70;33.20
2409;DHT22;8463;48.094;7.970;2022-09-23T07:29:49;11.70;34.00
2409;DHT22;8463;48.094;7.970;2022-09-23T07:32:16;11.80;32.90
2409;DHT22;8463;48.094;7.970;2022-09-23T07:34:42;12.00;32.60
2409;DHT22;8463;48.094;7.970;2022-09-23T07:37:08;12.10;32.60
2409;DHT22;8463;48.094;7.970;2022-09-23T07:39:35;12.30;31.60
2409;DHT22;8463;48.094;7.970;2022-09-23T07:42:01;12.30;30.80
2409;DHT22;8463;48.094;7.970;2022-09-23T07:44:29;12.30;30.20
2409;DHT22;8463;48.094;7.970;2022-09-23T07:46:57;12.30;30.10
2409;DHT22;8463;48.094;7.970;2022-09-23T07:49:23;12.30;30.70
2409;DHT22;8463;48.094;7.970;2022-09-23T07:51:50;12.30;31.10
2409;DHT22;8463;48.094;7.970;2022-09-23T07:54:17;12.40;31.10
2409;DHT22;8463;48.094;7.970;2022-09-23T07:56:44;12.60;30.40
2409;DHT22;8463;48.094;7.970;2022-09-23T07:59:15;12.80;29.20
2409;DHT22;8463;48.094;7.970;2022-09-23T08:01:45;12.80;29.60
2409;DHT22;8463;48.094;7.970;2022-09-23T08:04:19;13.10;28.70
2409;DHT22;8463;48.094;7.970;2022-09-23T08:06:48;13.30;28.10
2409;DHT22;8463;48.094;7.970;2022-09-23T08:09:16;13.50;27.50
2409;DHT22;8463;48.094;7.970;2022-09-23T08:11:41;13.70;27.40
2409;DHT22;8463;48.094;7.970;2022-09-23T08:14:08;13.80;26.70
2409;DHT22;8463;48.094;7.970;2022-09-23T08:16:34;14.10;26.60
2409;DHT22;8463;48.094;7.970;2022-09-23T08:19:01;14.10;26.80
2409;DHT22;8463;48.094;7.970;2022-09-23T08:21:27;14.30;26.40
2409;DHT22;8463;48.094;7.970;2022-09-23T08:23:52;14.70;23.90
2409;DHT22;8463;48.094;7.970;2022-09-23T08:26:18;14.70;24.80
2409;DHT22;8463;48.094;7.970;2022-09-23T08:28:44;14.80;24.90
2409;DHT22;8463;48.094;7.970;2022-09-23T08:31:10;14.90;25.80
2409;DHT22;8463;48.094;7.970;2022-09-23T08:33:39;15.20;24.70
2409;DHT22;8463;48.094;7.970;2022-09-23T08:36:06;15.50;23.80
2409;DHT22;8463;48.094;7.970;2022-09-23T08:38:31;15.70;21.20
2409;DHT22;8463;48.094;7.970;2022-09-23T08:43:48;15.80;23.40
2409;DHT22;8463;48.094;7.970;2022-09-23T08:46:22;16.10;22.70
2409;DHT22;8463;48.094;7.970;2022-09-23T08:48:49;16.20;19.70
2409;DHT22;8463;48.094;7.970;2022-09-23T08:51:19;16.40;19.30
2409;DHT22;8463;48.094;7.970;2022-09-23T08:53:46;16.50;19.60
2409;DHT22;8463;48.094;7.970;2022-09-23T08:56:17;16.60;19.90
2409;DHT22;8463;48.094;7.970;2022-09-23T08:59:10;16.90;16.30
2409;DHT22;8463;48.094;7.970;2022-09-23T09:01:43;16.90;16.70
2409;DHT22;8463;48.094;7.970;2022-09-23T09:07:27;17.00;11.30
2409;DHT22;8463;48.094;7.970;2022-09-23T09:12:38;17.10;11.40
2409;DHT22;8463;48.094;7.970;2022-09-23T09:15:20;17.10;11.00
2409;DHT22;8463;48.094;7.970;2022-09-23T09:23:44;17.10;14.20
2409;DHT22;8463;48.094;7.970;2022-09-23T09:26:20;17.40;8.50
2409;DHT22;8463;48.094;7.970;2022-09-23T09:28:54;17.40;9.10
2409;DHT22;8463;48.094;7.970;2022-09-23T09:31:32;17.50;10.10
2409;DHT22;8463;48.094;7.970;2022-09-23T09:34:33;17.40;10.30
2409;DHT22;8463;48.094;7.970;2022-09-23T09:37:05;17.50;10.40
2409;DHT22;8463;48.094;7.970;2022-09-23T09:39:34;17.60;9.80
2409;DHT22;8463;48.094;7.970;2022-09-23T09:42:01;17.50;10.10
2409;DHT22;8463;48.094;7.970;2022-09-23T09:50:09;17.50;10.80
2409;DHT22;8463;48.094;7.970;2022-09-23T09:52:35;17.60;10.80
2409;DHT22;8463;48.094;7.970;2022-09-23T09:57:46;17.70;10.80
2409;DHT22;8463;48.094;7.970;2022-09-23T10:02:52;18.00;9.00
2409;DHT22;8463;48.094;7.970;2022-09-23T10:05:32;18.00;9.10
2409;DHT22;8463;48.094;7.970;2022-09-23T10:08:24;18.00;10.00
2409;DHT22;8463;48.094;7.970;2022-09-23T10:11:15;18.00;8.10
2409;DHT22;8463;48.094;7.970;2022-09-23T10:13:59;18.30;8.20
2409;DHT22;8463;48.094;7.970;2022-09-23T10:16:30;18.30;8.10
2409;DHT22;8463;48.094;7.970;2022-09-23T10:18:58;18.50;6.90
2409;DHT22;8463;48.094;7.970;2022-09-23T10:21:31;18.50;7.30
2409;DHT22;8463;48.094;7.970;2022-09-23T10:24:00;18.40;6.50
2409;DHT22;8463;48.094;7.970;2022-09-23T10:29:03;18.50;9.20
2409;DHT22;8463;48.094;7.970;2022-09-23T10:31:33;19.10;5.00
2409;DHT22;8463;48.094;7.970;2022-09-23T10:34:25;19.00;4.90
2409;DHT22;8463;48.094;7.970;2022-09-23T10:37:13;19.10;6.10
2409;DHT22;8463;48.094;7.970;2022-09-23T10:39:40;19.50;3.20
2409;DHT22;8463;48.094;7.970;2022-09-23T10:43:01;19.70;2.40
2409;DHT22;8463;48.094;7.970;2022-09-23T10:45:48;19.70;3.90
2409;DHT22;8463;48.094;7.970;2022-09-23T10:51:29;19.80;1.00
2409;DHT22;8463;48.094;7.970;2022-09-23T10:54:07;19.80;1.00
2409;DHT22;8463;48.094;7.970;2022-09-23T10:56:39;19.90;1.00
2409;DHT22;8463;48.094;7.970;2022-09-23T11:02:14;20.10;1.00
2409;DHT22;8463;48.094;7.970;2022-09-23T11:21:11;20.30;1.00
2409;DHT22;8463;48.094;7.970;2022-09-23T11:27:29;20.30;1.00
2409;DHT22;8463;48.094;7.970;2022-09-23T11:38:03;20.70;1.00
2409;DHT22;8463;48.094;7.970;2022-09-23T11:40:33;20.80;1.00
2409;DHT22;8463;48.094;7.970;2022-09-23T11:43:20;21.10;1.00
2409;DHT22;8463;48.094;7.970;2022-09-23T11:49:02;21.20;1.00
2409;DHT22;8463;48.094;7.970;2022-09-23T11:51:59;21.30;1.00
2409;DHT22;8463;48.094;7.970;2022-09-23T11:57:52;21.70;1.00
2409;DHT22;8463;48.094;7.970;2022-09-23T12:00:21;22.00;1.00
2409;DHT22;8463;48.094;7.970;2022-09-23T12:02:58;22.00;1.00
2409;DHT22;8463;48.094;7.970;2022-09-23T12:05:43;21.50;1.00
2409;DHT22;8463;48.094;7.970;2022-09-23T12:08:25;21.50;1.00
2409;DHT22;8463;48.094;7.970;2022-09-23T12:10:57;21.40;1.00
2409;DHT22;8463;48.094;7.970;2022-09-23T12:19:12;21.50;1.00
2409;DHT22;8463;48.094;7.970;2022-09-23T12:26:58;21.50;1.00
2409;DHT22;8463;48.094;7.970;2022-09-23T12:29:26;21.50;1.00
2409;DHT22;8463;48.094;7.970;2022-09-23T12:31:54;21.50;1.00
2409;DHT22;8463;48.094;7.970;2022-09-23T12:37:04;21.40;1.00
2409;DHT22;8463;48.094;7.970;2022-09-23T12:39:32;21.60;1.00
2409;DHT22;8463;48.094;7.970;2022-09-23T12:42:04;21.90;1.00
2409;DHT22;8463;48.094;7.970;2022-09-23T12:44:39;21.90;1.00
2409;DHT22;8463;48.094;7.970;2022-09-23T12:47:29;21.90;1.00
2409;DHT22;8463;48.094;7.970;2022-09-23T12:50:20;21.90;1.00
2409;DHT22;8463;48.094;7.970;2022-09-23T12:57:47;22.00;1.00
2409;DHT22;8463;48.094;7.970;2022-09-23T13:00:21;21.80;1.00
2409;DHT22;8463;48.094;7.970;2022-09-23T13:05:31;21.90;1.00
2409;DHT22;8463;48.094;7.970;2022-09-23T13:08:23;22.00;1.00
2409;DHT22;8463;48.094;7.970;2022-09-23T13:10:51;22.00;1.00
2409;DHT22;8463;48.094;7.970;2022-09-23T13:13:40;22.00;1.00
2409;DHT22;8463;48.094;7.970;2022-09-23T13:16:20;21.80;1.00
2409;DHT22;8463;48.094;7.970;2022-09-23T13:21:57;21.50;1.00
2409;DHT22;8463;48.094;7.970;2022-09-23T13:26:56;21.80;1.00
2409;DHT22;8463;48.094;7.970;2022-09-23T13:32:10;22.10;1.00
2409;DHT22;8463;48.094;7.970;2022-09-23T13:34:37;21.90;1.00
2409;DHT22;8463;48.094;7.970;2022-09-23T13:37:30;21.50;1.00
2409;DHT22;8463;48.094;7.970;2022-09-23T13:42:52;21.30;1.00
2409;DHT22;8463;48.094;7.970;2022-09-23T13:45:21;21.10;1.00
2409;DHT22;8463;48.094;7.970;2022-09-23T13:47:48;21.10;1.00
2409;DHT22;8463;48.094;7.970;2022-09-23T13:50:21;21.10;1.00
2409;DHT22;8463;48.094;7.970;2022-09-23T13:52:55;21.00;1.00
2409;DHT22;8463;48.094;7.970;2022-09-23T13:55:33;21.00;1.00
2409;DHT22;8463;48.094;7.970;2022-09-23T13:58:21;20.90;1.00
2409;DHT22;8463;48.094;7.970;2022-09-23T14:00:49;20.90;1.00
2409;DHT22;8463;48.094;7.970;2022-09-23T14:03:29;20.90;1.00
2409;DHT22;8463;48.094;7.970;2022-09-23T14:06:01;20.90;1.00
2409;DHT22;8463;48.094;7.970;2022-09-23T14:08:29;20.90;1.00
2409;DHT22;8463;48.094;7.970;2022-09-23T14:10:57;20.90;1.00
2409;DHT22;8463;48.094;7.970;2022-09-23T14:13:27;20.90;1.00
2409;DHT22;8463;48.094;7.970;2022-09-23T14:15:58;20.90;1.00
2409;DHT22;8463;48.094;7.970;2022-09-23T14:18:38;20.80;1.00
2409;DHT22;8463;48.094;7.970;2022-09-23T14:21:05;20.80;1.00
2409;DHT22;8463;48.094;7.970;2022-09-23T14:23:47;20.70;1.00
2409;DHT22;8463;48.094;7.970;2022-09-23T14:26:13;20.70;1.00
2409;DHT22;8463;48.094;7.970;2022-09-23T14:28:39;20.80;1.00
2409;DHT22;8463;48.094;7.970;2022-09-23T14:31:05;20.60;1.00
2409;DHT22;8463;48.094;7.970;2022-09-23T14:33:32;20.60;1.00
2409;DHT22;8463;48.094;7.970;2022-09-23T14:36:07;20.60;1.00
2409;DHT22;8463;48.094;7.970;2022-09-23T14:39:09;20.60;1.00
2409;DHT22;8463;48.094;7.970;2022-09-23T14:41:43;20.60;3.10
2409;DHT22;8463;48.094;7.970;2022-09-23T14:44:23;20.40;7.90
2409;DHT22;8463;48.094;7.970;2022-09-23T14:46:57;20.40;7.50
2409;DHT22;8463;48.094;7.970;2022-09-23T14:49:24;20.40;8.20
2409;DHT22;8463;48.094;7.970;2022-09-23T14:51:58;20.50;4.70
2409;DHT22;8463;48.094;7.970;2022-09-23T14:57:02;20.20;10.60
2409;DHT22;8463;48.094;7.970;2022-09-23T14:59:59;20.00;15.00
2409;DHT22;8463;48.094;7.970;2022-09-23T15:02:36;20.00;15.00
2409;DHT22;8463;48.094;7.970;2022-09-23T15:05:28;20.00;13.80
2409;DHT22;8463;48.094;7.970;2022-09-23T15:07:56;19.90;15.40
2409;DHT22;8463;48.094;7.970;2022-09-23T15:10:26;19.70;19.00
2409;DHT22;8463;48.094;7.970;2022-09-23T15:12:54;19.70;19.00
2409;DHT22;8463;48.094;7.970;2022-09-23T15:15:26;19.70;18.90
2409;DHT22;8463;48.094;7.970;2022-09-23T15:18:00;19.80;19.40
2409;DHT22;8463;48.094;7.970;2022-09-23T15:20:27;19.80;18.60
2409;DHT22;8463;48.094;7.970;2022-09-23T15:22:54;19.70;17.50
2409;DHT22;8463;48.094;7.970;2022-09-23T15:30:38;19.70;19.10
2409;DHT22;8463;48.094;7.970;2022-09-23T15:33:04;19.70;19.40
2409;DHT22;8463;48.094;7.970;2022-09-23T15:35:30;19.70;20.90
2409;DHT22;8463;48.094;7.970;2022-09-23T15:37:58;19.60;21.40
2409;DHT22;8463;48.094;7.970;2022-09-23T15:40:31;19.40;21.20
2409;DHT22;8463;48.094;7.970;2022-09-23T15:42:59;19.50;21.60
2409;DHT22;8463;48.094;7.970;2022-09-23T15:45:31;19.40;17.00
2409;DHT22;8463;48.094;7.970;2022-09-23T15:48:00;19.40;17.40
2409;DHT22;8463;48.094;7.970;2022-09-23T15:50:28;19.60;18.00
2409;DHT22;8463;48.094;7.970;2022-09-23T15:52:55;19.50;18.30
2409;DHT22;8463;48.094;7.970;2022-09-23T15:55:21;19.70;19.90
2409;DHT22;8463;48.094;7.970;2022-09-23T15:57:48;19.70;20.40
2409;DHT22;8463;48.094;7.970;2022-09-23T16:00:14;19.70;19.10
2409;DHT22;8463;48.094;7.970;2022-09-23T16:02:44;19.70;18.10
2409;DHT22;8463;48.094;7.970;2022-09-23T16:05:17;19.70;18.50
2409;DHT22;8463;48.094;7.970;2022-09-23T16:07:45;19.60;20.60
2409;DHT22;8463;48.094;7.970;2022-09-23T16:10:13;19.50;18.40
2409;DHT22;8463;48.094;7.970;2022-09-23T16:12:39;19.50;19.00
2409;DHT22;8463;48.094;7.970;2022-09-23T16:15:12;19.50;19.50
2409;DHT22;8463;48.094;7.970;2022-09-23T16:17:38;19.20;23.50
2409;DHT22;8463;48.094;7.970;2022-09-23T16:20:04;19.20;24.20
2409;DHT22;8463;48.094;7.970;2022-09-23T16:22:29;18.90;23.80
2409;DHT22;8463;48.094;7.970;2022-09-23T16:24:55;18.80;24.20
2409;DHT22;8463;48.094;7.970;2022-09-23T16:27:21;18.60;25.20
2409;DHT22;8463;48.094;7.970;2022-09-23T16:29:46;18.60;25.60
2409;DHT22;8463;48.094;7.970;2022-09-23T16:32:12;18.50;27.00
2409;DHT22;8463;48.094;7.970;2022-09-23T16:34:38;18.50;27.70
2409;DHT22;8463;48.094;7.970;2022-09-23T16:37:03;18.60;28.30
2409;DHT22;8463;48.094;7.970;2022-09-23T16:39:29;18.60;28.80
2409;DHT22;8463;48.094;7.970;2022-09-23T16:41:55;18.50;29.10
2409;DHT22;8463;48.094;7.970;2022-09-23T16:44:22;18.30;29.20
2409;DHT22;8463;48.094;7.970;2022-09-23T16:46:49;18.30;29.40
2409;DHT22;8463;48.094;7.970;2022-09-23T16:49:15;18.00;28.20
2409;DHT22;8463;48.094;7.970;2022-09-23T16:51:40;18.00;28.60
2409;DHT22;8463;48.094;7.970;2022-09-23T16:54:11;18.00;28.60
2409;DHT22;8463;48.094;7.970;2022-09-23T16:56:38;17.90;29.20
2409;DHT22;8463;48.094;7.970;2022-09-23T16:59:13;18.00;29.70
2409;DHT22;8463;48.094;7.970;2022-09-23T17:01:39;17.90;30.10
2409;DHT22;8463;48.094;7.970;2022-09-23T17:04:23;17.90;30.30
2409;DHT22;8463;48.094;7.970;2022-09-23T17:06:50;17.90;29.90
2409;DHT22;8463;48.094;7.970;2022-09-23T17:09:18;17.90;29.30
2409;DHT22;8463;48.094;7.970;2022-09-23T17:11:44;18.00;29.70
2409;DHT22;8463;48.094;7.970;2022-09-23T17:14:16;18.00;29.50
2409;DHT22;8463;48.094;7.970;2022-09-23T17:16:42;18.00;28.40
2409;DHT22;8463;48.094;7.970;2022-09-23T17:19:10;17.90;26.90
2409;DHT22;8463;48.094;7.970;2022-09-23T17:21:36;17.90;27.00
2409;DHT22;8463;48.094;7.970;2022-09-23T17:24:02;17.80;27.30
2409;DHT22;8463;48.094;7.970;2022-09-23T17:26:29;17.70;26.40
2409;DHT22;8463;48.094;7.970;2022-09-23T17:28:55;17.70;26.90
2409;DHT22;8463;48.094;7.970;2022-09-23T17:31:23;17.70;27.00
2409;DHT22;8463;48.094;7.970;2022-09-23T17:33:50;17.70;26.30
2409;DHT22;8463;48.094;7.970;2022-09-23T17:36:16;17.70;26.10
2409;DHT22;8463;48.094;7.970;2022-09-23T17:38:42;17.60;25.90
2409;DHT22;8463;48.094;7.970;2022-09-23T17:41:09;17.70;26.40
2409;DHT22;8463;48.094;7.970;2022-09-23T17:43:36;17.60;26.30
2409;DHT22;8463;48.094;7.970;2022-09-23T17:46:10;17.50;26.40
2409;DHT22;8463;48.094;7.970;2022-09-23T17:48:38;17.50;26.30
2409;DHT22;8463;48.094;7.970;2022-09-23T17:53:36;17.50;26.70
2409;DHT22;8463;48.094;7.970;2022-09-23T17:56:35;17.40;26.80
2409;DHT22;8463;48.094;7.970;2022-09-23T17:59:01;17.50;26.80
2409;DHT22;8463;48.094;7.970;2022-09-23T18:01:28;17.50;26.70
2409;DHT22;8463;48.094;7.970;2022-09-23T18:03:58;17.40;26.80
2409;DHT22;8463;48.094;7.970;2022-09-23T18:06:27;17.40;27.10
2409;DHT22;8463;48.094;7.970;2022-09-23T18:08:53;17.40;27.40
2409;DHT22;8463;48.094;7.970;2022-09-23T18:11:26;17.50;26.40
2409;DHT22;8463;48.094;7.970;2022-09-23T18:13:54;17.40;25.60
2409;DHT22;8463;48.094;7.970;2022-09-23T18:16:22;17.50;26.20
2409;DHT22;8463;48.094;7.970;2022-09-23T18:18:53;17.30;26.70
2409;DHT22;8463;48.094;7.970;2022-09-23T18:21:19;17.10;27.40
2409;DHT22;8463;48.094;7.970;2022-09-23T18:23:46;17.00;27.80
2409;DHT22;8463;48.094;7.970;2022-09-23T18:26:13;17.00;28.00
2409;DHT22;8463;48.094;7.970;2022-09-23T18:28:39;16.90;27.90
2409;DHT22;8463;48.094;7.970;2022-09-23T18:31:05;16.80;28.30
2409;DHT22;8463;48.094;7.970;2022-09-23T18:33:30;16.70;28.20
2409;DHT22;8463;48.094;7.970;2022-09-23T18:35:58;16.70;28.60
2409;DHT22;8463;48.094;7.970;2022-09-23T18:38:24;16.70;29.10
2409;DHT22;8463;48.094;7.970;2022-09-23T18:40:54;16.60;28.70
2409;DHT22;8463;48.094;7.970;2022-09-23T18:43:22;16.60;28.90
2409;DHT22;8463;48.094;7.970;2022-09-23T18:46:03;16.50;28.90
2409;DHT22;8463;48.094;7.970;2022-09-23T18:48:30;16.50;29.20
2409;DHT22;8463;48.094;7.970;2022-09-23T18:51:16;16.40;29.60
2409;DHT22;8463;48.094;7.970;2022-09-23T18:53:43;16.40;29.60
2409;DHT22;8463;48.094;7.970;2022-09-23T18:56:16;16.30;29.90
2409;DHT22;8463;48.094;7.970;2022-09-23T18:58:49;16.20;29.90
2409;DHT22;8463;48.094;7.970;2022-09-23T19:01:16;16.30;30.30
2409;DHT22;8463;48.094;7.970;2022-09-23T19:03:42;16.20;29.90
2409;DHT22;8463;48.094;7.970;2022-09-23T19:06:11;16.20;30.20
2409;DHT22;8463;48.094;7.970;2022-09-23T19:08:37;16.20;29.90
2409;DHT22;8463;48.094;7.970;2022-09-23T19:11:05;16.20;29.90